createdAt,value
2023-05-15T00:00:54.740Z,99.90
2023-05-15T00:03:24.322Z,99.90
2023-05-15T00:05:52.451Z,99.90
2023-05-15T00:08:20.563Z,99.90
2023-05-15T00:11:00.616Z,99.90
2023-05-15T00:13:30.360Z,99.90
2023-05-15T00:15:58.687Z,99.90
2023-05-15T00:18:28.258Z,99.90
2023-05-15T00:20:56.440Z,99.90
2023-05-15T00:23:24.481Z,99.90
2023-05-15T00:25:52.567Z,99.90
2023-05-15T00:28:20.676Z,99.90
2023-05-15T00:30:49.854Z,99.90
2023-05-15T00:33:17.906Z,99.90
2023-05-15T00:35:47.502Z,99.90
2023-05-15T00:38:15.590Z,99.90
2023-05-15T00:40:44.473Z,99.90
2023-05-15T00:43:14.133Z,99.90
2023-05-15T00:45:44.491Z,99.90
2023-05-15T00:48:13.232Z,99.90
2023-05-15T00:50:42.493Z,99.90
2023-05-15T00:53:12.576Z,99.90
2023-05-15T00:55:41.663Z,99.90
2023-05-15T00:58:11.228Z,99.90
2023-05-15T01:00:40.024Z,99.90
2023-05-15T01:03:08.274Z,99.90
2023-05-15T01:05:36.513Z,99.90
2023-05-15T01:08:12.108Z,99.90
2023-05-15T01:10:44.169Z,99.90
2023-05-15T01:13:14.983Z,99.90
2023-05-15T01:15:43.404Z,99.90
2023-05-15T01:18:12.845Z,99.90
2023-05-15T01:20:51.805Z,99.90
2023-05-15T01:23:30.418Z,99.90
2023-05-15T01:26:44.146Z,99.90
2023-05-15T01:29:20.544Z,99.90
2023-05-15T01:31:55.207Z,99.90
2023-05-15T01:34:30.520Z,99.90
2023-05-15T01:37:03.207Z,99.90
2023-05-15T01:39:34.979Z,99.90
2023-05-15T01:42:08.733Z,99.90
2023-05-15T01:44:42.229Z,99.90
2023-05-15T01:47:15.513Z,99.90
2023-05-15T01:49:45.903Z,99.90
2023-05-15T01:52:20.026Z,99.90
2023-05-15T01:54:50.418Z,99.90
2023-05-15T01:57:19.993Z,99.90
2023-05-15T01:59:49.831Z,99.90
2023-05-15T02:02:19.471Z,99.90
2023-05-15T02:04:49.140Z,99.90
2023-05-15T02:07:18.063Z,99.90
2023-05-15T02:09:47.514Z,99.90
2023-05-15T02:12:17.148Z,99.90
2023-05-15T02:14:46.133Z,99.90
2023-05-15T02:17:16.266Z,99.90
2023-05-15T02:19:44.393Z,99.90
2023-05-15T02:22:12.791Z,99.90
2023-05-15T02:24:41.805Z,99.90
2023-05-15T02:27:16.973Z,99.90
2023-05-15T02:29:56.288Z,99.90
2023-05-15T02:32:35.585Z,99.90
2023-05-15T02:35:15.056Z,99.90
2023-05-15T02:37:47.880Z,99.90
2023-05-15T02:40:17.730Z,99.90
2023-05-15T02:42:48.728Z,99.90
2023-05-15T02:45:18.607Z,99.90
2023-05-15T02:47:50.453Z,99.90
2023-05-15T02:50:18.970Z,99.90
2023-05-15T02:52:47.066Z,99.90
2023-05-15T02:55:15.165Z,99.90
2023-05-15T02:57:43.246Z,99.90
2023-05-15T03:00:12.736Z,99.90
2023-05-15T03:02:40.977Z,99.90
2023-05-15T03:05:10.908Z,99.90
2023-05-15T03:07:39.150Z,99.90
2023-05-15T03:10:08.334Z,99.90
2023-05-15T03:12:36.479Z,99.90
2023-05-15T03:15:05.070Z,99.90
2023-05-15T03:17:33.257Z,99.90
2023-05-15T03:20:01.664Z,99.90
2023-05-15T03:22:31.092Z,99.90
2023-05-15T03:24:59.262Z,99.90
2023-05-15T03:27:27.438Z,99.90
2023-05-15T03:29:55.526Z,99.90
2023-05-15T03:32:23.798Z,99.90
2023-05-15T03:34:51.942Z,99.90
2023-05-15T03:37:20.036Z,99.90
2023-05-15T03:39:51.663Z,99.90
2023-05-15T03:42:23.412Z,99.90
2023-05-15T03:44:52.046Z,99.90
2023-05-15T03:47:20.208Z,99.90
2023-05-15T03:49:48.779Z,99.90
2023-05-15T03:52:17.035Z,99.90
2023-05-15T03:54:45.995Z,99.90
2023-05-15T03:57:15.589Z,99.90
2023-05-15T03:59:43.656Z,99.90
2023-05-15T04:02:11.796Z,99.90
2023-05-15T04:04:39.947Z,99.90
2023-05-15T04:07:08.022Z,99.90
2023-05-15T04:09:36.108Z,99.90
2023-05-15T04:12:04.898Z,99.90
2023-05-15T04:14:34.291Z,99.90
2023-05-15T04:17:02.402Z,99.90
2023-05-15T04:19:30.458Z,99.90
2023-05-15T04:21:58.541Z,99.90
2023-05-15T04:24:26.575Z,99.90
2023-05-15T04:26:54.887Z,99.90
2023-05-15T04:29:23.022Z,99.90
2023-05-15T04:31:52.509Z,99.90
2023-05-15T04:34:20.671Z,99.90
2023-05-15T04:36:49.391Z,99.90
2023-05-15T04:39:17.371Z,99.90
2023-05-15T04:41:45.564Z,99.90
2023-05-15T04:44:13.630Z,99.90
2023-05-15T04:46:41.738Z,99.90
2023-05-15T04:49:11.262Z,99.90
2023-05-15T04:51:39.362Z,99.90
2023-05-15T04:54:07.441Z,99.90
2023-05-15T04:56:36.136Z,99.90
2023-05-15T04:59:04.197Z,99.90
2023-05-15T05:01:32.319Z,99.90
2023-05-15T05:04:00.534Z,99.90
2023-05-15T05:06:30.631Z,99.90
2023-05-15T05:08:59.179Z,99.90
2023-05-15T05:11:27.217Z,99.90
2023-05-15T05:13:55.309Z,99.90
2023-05-15T05:16:23.375Z,99.90
2023-05-15T05:18:51.633Z,99.90
2023-05-15T05:21:19.722Z,99.90
2023-05-15T05:23:49.167Z,99.90
2023-05-15T05:26:17.214Z,99.90
2023-05-15T05:28:45.231Z,99.90
2023-05-15T05:31:13.246Z,99.90
2023-05-15T05:33:42.244Z,99.90
2023-05-15T05:36:10.703Z,99.90
2023-05-15T05:38:39.436Z,99.90
2023-05-15T05:41:08.945Z,99.90
2023-05-15T05:43:36.948Z,99.90
2023-05-15T05:46:05.001Z,99.90
2023-05-15T05:48:33.060Z,99.90
2023-05-15T05:51:01.121Z,99.90
2023-05-15T05:53:29.164Z,99.90
2023-05-15T05:55:57.377Z,99.90
2023-05-15T05:58:26.926Z,99.90
2023-05-15T06:00:55.115Z,99.90
2023-05-15T06:03:23.470Z,99.90
2023-05-15T06:05:52.884Z,99.90
2023-05-15T06:08:21.074Z,99.90
2023-05-15T06:10:49.438Z,99.90
2023-05-15T06:13:17.544Z,99.90
2023-05-15T06:15:47.388Z,99.90
2023-05-15T06:18:15.562Z,99.90
2023-05-15T06:20:43.708Z,99.90
2023-05-15T06:23:11.771Z,99.90
2023-05-15T06:25:40.034Z,99.90
2023-05-15T06:28:08.137Z,99.90
2023-05-15T06:30:36.210Z,99.90
2023-05-15T06:33:06.004Z,99.90
2023-05-15T06:35:34.089Z,99.90
2023-05-15T06:38:02.403Z,99.90
2023-05-15T06:40:30.581Z,99.90
2023-05-15T06:42:58.734Z,99.90
2023-05-15T06:45:27.681Z,99.90
2023-05-15T06:47:56.074Z,99.90
2023-05-15T06:50:26.227Z,99.90
2023-05-15T06:52:54.715Z,99.90
2023-05-15T06:55:22.990Z,99.90
2023-05-15T06:57:51.301Z,99.90
2023-05-15T07:00:19.898Z,99.90
2023-05-15T07:02:47.942Z,99.90
2023-05-15T07:05:16.132Z,99.90
2023-05-15T07:07:45.993Z,99.90
2023-05-15T07:10:14.070Z,99.90
2023-05-15T07:12:42.142Z,99.90
2023-05-15T07:15:11.088Z,99.90
2023-05-15T07:17:39.330Z,99.90
2023-05-15T07:20:08.303Z,99.90
2023-05-15T07:22:44.553Z,99.90
2023-05-15T07:25:21.821Z,99.90
2023-05-15T07:27:49.835Z,99.90
2023-05-15T07:30:18.037Z,99.90
2023-05-15T07:32:46.513Z,99.90
2023-05-15T07:35:14.590Z,99.90
2023-05-15T07:37:42.631Z,99.90
2023-05-15T07:40:11.296Z,99.90
2023-05-15T07:42:40.690Z,99.90
2023-05-15T07:45:09.883Z,99.90
2023-05-15T07:47:38.188Z,99.90
2023-05-15T07:50:07.138Z,99.90
2023-05-15T07:52:35.151Z,99.90
2023-05-15T07:55:04.190Z,99.90
2023-05-15T07:57:32.876Z,99.90
2023-05-15T08:00:06.582Z,99.90
2023-05-15T08:02:40.204Z,99.90
2023-05-15T08:05:08.985Z,99.90
2023-05-15T08:07:37.226Z,99.90
2023-05-15T08:10:06.326Z,99.90
2023-05-15T08:12:34.973Z,99.90
2023-05-15T08:15:04.812Z,99.90
2023-05-15T08:17:32.885Z,99.90
2023-05-15T08:20:00.985Z,99.90
2023-05-15T08:22:30.319Z,99.90
2023-05-15T08:24:59.516Z,99.90
2023-05-15T08:27:27.810Z,99.90
2023-05-15T08:29:55.843Z,99.90
2023-05-15T08:32:25.460Z,99.90
2023-05-15T08:34:53.491Z,99.90
2023-05-15T08:37:21.559Z,99.90
2023-05-15T08:39:49.563Z,99.90
2023-05-15T08:42:22.501Z,99.90
2023-05-15T08:44:51.670Z,99.90
2023-05-15T08:47:20.658Z,99.90
2023-05-15T08:49:56.359Z,99.90
2023-05-15T08:52:26.478Z,99.90
2023-05-15T08:54:55.223Z,99.90
2023-05-15T08:57:24.086Z,99.90
2023-05-15T08:59:53.716Z,99.90
2023-05-15T09:02:22.318Z,99.90
2023-05-15T09:04:51.781Z,99.90
2023-05-15T09:07:21.225Z,99.90
2023-05-15T09:09:49.542Z,99.90
2023-05-15T09:12:17.954Z,99.90
2023-05-15T09:14:46.452Z,99.90
2023-05-15T09:17:14.951Z,99.90
2023-05-15T09:19:43.819Z,99.90
2023-05-15T09:22:23.549Z,99.90
2023-05-15T09:24:53.188Z,99.90
2023-05-15T09:27:22.001Z,99.90
2023-05-15T09:29:51.751Z,99.90
2023-05-15T09:32:20.103Z,99.90
2023-05-15T09:34:48.387Z,99.90
2023-05-15T09:37:31.396Z,99.90
2023-05-15T09:40:10.779Z,99.90
2023-05-15T09:42:38.910Z,99.90
2023-05-15T09:45:17.776Z,99.90
2023-05-15T09:47:46.913Z,99.90
2023-05-15T09:50:22.387Z,99.90
2023-05-15T09:52:52.098Z,99.90
2023-05-15T09:55:22.295Z,99.90
2023-05-15T09:58:06.723Z,99.90
2023-05-15T10:00:35.842Z,99.90
2023-05-15T10:03:05.018Z,99.90
2023-05-15T10:05:42.996Z,99.90
2023-05-15T10:08:14.941Z,99.90
2023-05-15T10:10:43.557Z,99.90
2023-05-15T10:13:12.692Z,99.90
2023-05-15T10:15:41.203Z,99.90
2023-05-15T10:18:09.902Z,99.90
2023-05-15T10:20:38.682Z,99.90
2023-05-15T10:23:11.440Z,99.90
2023-05-15T10:25:46.871Z,99.90
2023-05-15T10:28:15.922Z,99.90
2023-05-15T10:30:44.885Z,99.90
2023-05-15T10:33:13.622Z,99.90
2023-05-15T10:35:42.164Z,99.90
2023-05-15T10:38:11.724Z,99.90
2023-05-15T10:40:42.635Z,99.90
2023-05-15T10:43:12.452Z,99.90
2023-05-15T10:45:41.056Z,99.90
2023-05-15T10:48:12.272Z,99.90
2023-05-15T10:50:40.698Z,99.90
2023-05-15T10:53:10.803Z,99.90
2023-05-15T10:55:40.563Z,99.90
2023-05-15T10:58:10.577Z,99.90
2023-05-15T11:00:43.659Z,99.90
2023-05-15T11:03:15.228Z,99.90
2023-05-15T11:06:08.909Z,99.90
2023-05-15T11:08:37.823Z,99.90
2023-05-15T11:11:07.466Z,99.90
2023-05-15T11:14:12.789Z,99.90
2023-05-15T11:17:04.763Z,99.90
2023-05-15T11:19:35.910Z,99.90
2023-05-15T11:22:17.822Z,99.90
2023-05-15T11:24:51.992Z,99.90
2023-05-15T11:27:23.587Z,99.90
2023-05-15T11:30:13.038Z,99.90
2023-05-15T11:32:46.288Z,99.90
2023-05-15T11:35:18.988Z,99.90
2023-05-15T11:37:48.925Z,99.90
2023-05-15T11:40:22.289Z,99.90
2023-05-15T11:43:05.902Z,99.90
2023-05-15T11:45:35.909Z,99.90
2023-05-15T11:48:06.527Z,99.90
2023-05-15T11:50:36.389Z,99.90
2023-05-15T11:53:06.254Z,99.90
2023-05-15T11:55:36.437Z,99.90
2023-05-15T11:58:06.886Z,99.90
2023-05-15T12:00:35.091Z,99.90
2023-05-15T12:03:03.855Z,99.90
2023-05-15T12:05:32.074Z,99.90
2023-05-15T12:08:00.158Z,99.90
2023-05-15T12:10:28.428Z,99.90
2023-05-15T12:12:56.488Z,99.90
2023-05-15T12:15:26.093Z,99.90
2023-05-15T12:17:54.259Z,99.90
2023-05-15T12:20:22.620Z,99.90
2023-05-15T12:22:50.812Z,99.90
2023-05-15T12:25:18.865Z,99.90
2023-05-15T12:27:47.113Z,99.90
2023-05-15T12:30:16.099Z,99.90
2023-05-15T12:32:45.854Z,99.90
2023-05-15T12:35:14.035Z,99.90
2023-05-15T12:37:43.343Z,99.90
2023-05-15T12:40:12.655Z,99.90
2023-05-15T12:42:42.475Z,99.90
2023-05-15T12:45:15.542Z,99.90
2023-05-15T12:47:45.926Z,99.90
2023-05-15T12:50:16.096Z,99.90
2023-05-15T12:52:54.366Z,99.90
2023-05-15T12:55:25.694Z,99.90
2023-05-15T12:57:53.930Z,99.90
2023-05-15T13:00:23.763Z,99.90
2023-05-15T13:02:56.902Z,99.90
2023-05-15T13:05:25.406Z,99.90
2023-05-15T13:07:53.942Z,99.90
2023-05-15T13:10:23.290Z,99.90
2023-05-15T13:12:52.977Z,99.90
2023-05-15T13:15:26.967Z,99.90
2023-05-15T13:18:00.179Z,99.90
2023-05-15T13:20:29.683Z,99.90
2023-05-15T13:22:57.748Z,99.90
2023-05-15T13:25:25.844Z,99.90
2023-05-15T13:27:53.923Z,99.90
2023-05-15T13:30:21.998Z,99.90
2023-05-15T13:32:50.137Z,99.90
2023-05-15T13:35:19.992Z,99.90
2023-05-15T13:37:48.301Z,99.90
2023-05-15T13:40:17.523Z,99.90
2023-05-15T13:42:46.644Z,99.90
2023-05-15T13:45:16.056Z,99.90
2023-05-15T13:47:44.986Z,99.90
2023-05-15T13:50:14.748Z,99.90
2023-05-15T13:52:46.241Z,99.90
2023-05-15T13:55:14.679Z,99.90
2023-05-15T13:57:44.164Z,99.90
2023-05-15T14:00:14.012Z,99.90
2023-05-15T14:02:43.046Z,99.90
2023-05-15T14:05:12.341Z,99.90
2023-05-15T14:07:40.748Z,99.90
2023-05-15T14:10:11.395Z,99.90
2023-05-15T14:12:39.960Z,99.90
2023-05-15T14:15:09.020Z,99.90
2023-05-15T14:17:37.098Z,99.90
2023-05-15T14:20:06.657Z,99.90
2023-05-15T14:22:35.066Z,99.90
2023-05-15T14:25:03.963Z,99.90
2023-05-15T14:27:33.406Z,99.90
2023-05-15T14:30:01.761Z,99.90
2023-05-15T14:32:29.977Z,99.90
2023-05-15T14:34:59.871Z,99.90
2023-05-15T14:37:28.468Z,99.90
2023-05-15T14:39:56.564Z,99.90
2023-05-15T14:42:24.600Z,99.90
2023-05-15T14:44:54.000Z,99.90
2023-05-15T14:47:22.088Z,99.90
2023-05-15T14:49:50.279Z,99.90
2023-05-15T14:52:18.353Z,99.90
2023-05-15T14:54:57.005Z,99.90
2023-05-15T14:57:34.576Z,99.90
2023-05-15T15:00:05.885Z,99.90
2023-05-15T15:02:34.122Z,99.90
2023-05-15T15:05:02.261Z,99.90
2023-05-15T15:07:31.233Z,99.90
2023-05-15T15:09:59.354Z,99.90
2023-05-15T15:12:27.839Z,99.90
2023-05-15T15:14:55.908Z,99.90
2023-05-15T15:17:25.419Z,99.90
2023-05-15T15:19:53.498Z,99.90
2023-05-15T15:22:21.535Z,99.90
2023-05-15T15:24:49.619Z,99.90
2023-05-15T15:27:18.305Z,99.90
2023-05-15T15:29:46.971Z,99.90
2023-05-15T15:32:15.247Z,99.90
2023-05-15T15:34:45.485Z,99.90
2023-05-15T15:37:13.515Z,99.90
2023-05-15T15:39:41.776Z,99.90
2023-05-15T15:42:10.881Z,99.90
2023-05-15T15:44:38.927Z,99.90
2023-05-15T15:47:07.073Z,99.90
2023-05-15T15:49:35.225Z,99.90
2023-05-15T15:52:04.777Z,99.90
2023-05-15T15:54:33.194Z,99.80
2023-05-15T15:57:01.290Z,99.80
2023-05-15T15:59:29.487Z,99.70
2023-05-15T16:01:58.218Z,99.60
2023-05-15T16:04:26.299Z,99.50
2023-05-15T16:06:54.409Z,99.50
2023-05-15T16:09:23.837Z,99.40
2023-05-15T16:11:52.158Z,99.10
2023-05-15T16:14:21.388Z,98.70
2023-05-15T16:16:49.466Z,98.90
2023-05-15T16:19:18.129Z,98.90
2023-05-15T16:21:46.527Z,99.00
2023-05-15T16:24:14.752Z,99.50
2023-05-15T16:26:44.179Z,99.40
2023-05-15T16:29:12.585Z,99.50
2023-05-15T16:31:40.705Z,99.60
2023-05-15T16:34:09.535Z,99.70
2023-05-15T16:36:37.721Z,99.90
2023-05-15T16:39:05.892Z,99.90
2023-05-15T16:41:34.002Z,99.90
2023-05-15T16:44:06.075Z,99.90
2023-05-15T16:46:34.520Z,99.90
2023-05-15T16:49:02.606Z,99.90
2023-05-15T16:51:30.939Z,99.90
2023-05-15T16:53:59.450Z,99.90
2023-05-15T16:56:27.543Z,99.90
2023-05-15T16:58:56.252Z,99.90
2023-05-15T17:01:25.763Z,99.90
2023-05-15T17:03:53.948Z,99.90
2023-05-15T17:06:22.051Z,99.90
2023-05-15T17:08:50.103Z,99.90
2023-05-15T17:11:18.263Z,99.90
2023-05-15T17:13:46.383Z,99.90
2023-05-15T17:16:14.426Z,99.90
2023-05-15T17:18:43.808Z,99.90
2023-05-15T17:21:12.068Z,99.90
2023-05-15T17:23:40.070Z,99.90
2023-05-15T17:26:08.082Z,99.90
2023-05-15T17:28:38.953Z,99.90
2023-05-15T17:31:11.028Z,99.90
2023-05-15T17:33:39.109Z,99.90
2023-05-15T17:36:09.278Z,99.90
2023-05-15T17:38:37.319Z,99.90
2023-05-15T17:41:06.368Z,99.90
2023-05-15T17:43:34.463Z,99.90
2023-05-15T17:46:02.596Z,99.90
2023-05-15T17:48:30.684Z,99.90
2023-05-15T17:50:58.728Z,99.90
2023-05-15T17:53:28.193Z,99.90
2023-05-15T17:55:56.278Z,99.90
2023-05-15T17:58:24.347Z,99.90
2023-05-15T18:00:52.714Z,99.90
2023-05-15T18:03:20.773Z,99.90
2023-05-15T18:05:49.159Z,99.90
2023-05-15T18:08:17.232Z,99.90
2023-05-15T18:10:46.706Z,99.90
2023-05-15T18:13:14.827Z,99.90
2023-05-15T18:15:42.842Z,99.90
2023-05-15T18:18:10.938Z,99.90
2023-05-15T18:20:39.073Z,99.90
2023-05-15T18:23:07.105Z,99.90
2023-05-15T18:25:36.780Z,99.90
2023-05-15T18:28:06.378Z,99.90
2023-05-15T18:30:35.586Z,99.90
2023-05-15T18:33:03.612Z,99.90
2023-05-15T18:35:31.663Z,99.90
2023-05-15T18:37:59.762Z,99.90
2023-05-15T18:40:27.874Z,99.90
2023-05-15T18:42:56.522Z,99.90
2023-05-15T18:45:26.666Z,99.90
2023-05-15T18:47:55.824Z,99.90
2023-05-15T18:50:24.981Z,99.90
2023-05-15T18:52:53.138Z,99.90
2023-05-15T18:55:21.600Z,99.90
2023-05-15T18:57:49.811Z,99.90
2023-05-15T19:00:26.601Z,99.90
2023-05-15T19:03:03.279Z,99.90
2023-05-15T19:05:33.595Z,99.90
2023-05-15T19:08:01.762Z,99.90
2023-05-15T19:10:33.219Z,99.90
2023-05-15T19:13:01.248Z,99.90
2023-05-15T19:15:29.213Z,99.90
2023-05-15T19:17:57.413Z,99.90
2023-05-15T19:20:26.903Z,99.90
2023-05-15T19:22:55.024Z,99.90
2023-05-15T19:25:23.313Z,99.90
2023-05-15T19:27:51.310Z,99.90
2023-05-15T19:30:19.434Z,99.90
2023-05-15T19:32:47.443Z,99.90
2023-05-15T19:35:15.625Z,99.90
2023-05-15T19:37:45.299Z,99.90
2023-05-15T19:40:14.070Z,99.90
2023-05-15T19:42:42.114Z,99.90
2023-05-15T19:45:10.859Z,99.90
2023-05-15T19:47:38.987Z,99.90
2023-05-15T19:50:08.489Z,99.90
2023-05-15T19:52:36.521Z,99.90
2023-05-15T19:55:06.838Z,99.90
2023-05-15T19:57:34.901Z,99.90
2023-05-15T20:00:03.621Z,99.90
2023-05-15T20:02:32.829Z,99.90
2023-05-15T20:05:01.214Z,99.90
2023-05-15T20:07:29.277Z,99.90
2023-05-15T20:09:57.398Z,99.90
2023-05-15T20:12:26.909Z,99.90
2023-05-15T20:14:54.906Z,99.90
2023-05-15T20:17:24.011Z,99.90
2023-05-15T20:19:53.056Z,99.90
2023-05-15T20:22:21.101Z,99.90
2023-05-15T20:24:50.006Z,99.90
2023-05-15T20:27:18.036Z,99.90
2023-05-15T20:29:47.401Z,99.90
2023-05-15T20:32:15.439Z,99.90
2023-05-15T20:34:45.680Z,99.90
2023-05-15T20:37:13.824Z,99.90
2023-05-15T20:39:41.850Z,99.90
2023-05-15T20:42:09.900Z,99.90
2023-05-15T20:44:39.275Z,99.90
2023-05-15T20:47:08.801Z,99.90
2023-05-15T20:49:36.866Z,99.90
2023-05-15T20:52:05.053Z,99.90
2023-05-15T20:54:33.143Z,99.90
2023-05-15T20:57:01.242Z,99.90
2023-05-15T20:59:29.286Z,99.90
2023-05-15T21:01:57.420Z,99.90
2023-05-15T21:04:26.922Z,99.90
2023-05-15T21:06:54.909Z,99.90
2023-05-15T21:09:22.952Z,99.90
2023-05-15T21:11:51.039Z,99.90
2023-05-15T21:14:19.924Z,99.90
2023-05-15T21:16:48.139Z,99.90
2023-05-15T21:19:16.293Z,99.90
2023-05-15T21:21:45.813Z,99.90
2023-05-15T21:24:13.821Z,99.90
2023-05-15T21:26:41.817Z,99.90
2023-05-15T21:29:09.989Z,99.90
2023-05-15T21:31:38.031Z,99.90
2023-05-15T21:34:06.171Z,99.90
2023-05-15T21:36:34.387Z,99.90
2023-05-15T21:39:04.486Z,99.90
2023-05-15T21:41:32.497Z,99.90
2023-05-15T21:44:00.509Z,99.90
2023-05-15T21:46:28.572Z,99.90
2023-05-15T21:48:56.572Z,99.90
2023-05-15T21:51:24.674Z,99.90
2023-05-15T21:53:52.806Z,99.90
2023-05-15T21:56:22.559Z,99.90
2023-05-15T21:58:50.604Z,99.90
2023-05-15T22:01:18.740Z,99.90
2023-05-15T22:03:47.112Z,99.90
2023-05-15T22:06:15.385Z,99.90
2023-05-15T22:08:43.442Z,99.90
2023-05-15T22:11:11.579Z,99.90
2023-05-15T22:13:41.009Z,99.90
2023-05-15T22:16:09.515Z,99.90
2023-05-15T22:18:37.740Z,99.90
2023-05-15T22:21:06.325Z,99.90
2023-05-15T22:23:34.328Z,99.90
2023-05-15T22:26:02.415Z,99.90
2023-05-15T22:28:30.586Z,99.90
2023-05-15T22:31:00.072Z,99.90
2023-05-15T22:33:28.107Z,99.90
2023-05-15T22:35:56.267Z,99.90
2023-05-15T22:38:24.323Z,99.90
2023-05-15T22:40:52.940Z,99.90
2023-05-15T22:43:21.484Z,99.90
2023-05-15T22:45:49.592Z,99.90
2023-05-15T22:48:19.555Z,99.90
2023-05-15T22:50:47.787Z,99.90
2023-05-15T22:53:16.286Z,99.90
2023-05-15T22:55:44.819Z,99.90
2023-05-15T22:58:13.317Z,99.90
2023-05-15T23:00:41.473Z,99.90
2023-05-15T23:03:09.628Z,99.90
2023-05-15T23:05:39.159Z,99.90
2023-05-15T23:08:25.414Z,99.90
2023-05-15T23:10:56.101Z,99.90
2023-05-15T23:13:24.638Z,99.90
2023-05-15T23:15:52.658Z,99.90
2023-05-15T23:18:20.833Z,99.90
2023-05-15T23:20:50.464Z,99.90
2023-05-15T23:23:19.139Z,99.90
2023-05-15T23:25:47.279Z,99.90
2023-05-15T23:28:15.315Z,99.90
2023-05-15T23:30:43.421Z,99.90
2023-05-15T23:33:11.618Z,99.90
2023-05-15T23:35:39.678Z,99.90
2023-05-15T23:38:09.235Z,99.90
2023-05-15T23:40:37.311Z,99.90
2023-05-15T23:43:05.336Z,99.90
2023-05-15T23:45:33.404Z,99.90
2023-05-15T23:48:01.565Z,99.90
2023-05-15T23:50:29.673Z,99.90
2023-05-15T23:52:57.728Z,99.90
2023-05-15T23:55:27.485Z,99.90
2023-05-15T23:57:55.636Z,99.90
